Terminal Aerodrome Forecast
Issued by NWS

Home | Current Version | Previous Version | Graphics & Text | Print | Product List | Glossary On
Versions: 1 2 3 4 5 6 7 8 9 10 11 12 13 14 15 16
131
FTUS42 KMHX 240538
TAFPGV
TAF
KPGV 240538Z 2406/2506 20013G20KT P6SM SCT015
     FM241300 23012G20KT P6SM SCT015 BKN040
     FM241800 23010G18KT P6SM VCSH BKN040
     FM250000 22005KT 4SM SHRA VCTS SCT025CB OVC060
      AMD LTD TO CLD VIS AND WIND=

USA.gov is the U.S. government's official web portal to all federal, state and local government web resources and services.